Time;durP1;ratioP1;P1;durP2;ratioP2;P2;SDS_P1;SDS_P2;PMS_P1;PMS_P2;Temp;Humidity;BMP_temperature;BMP_pressure;BME280_temperature;BME280_humidity;BME280_pressure;Samples;Min_cycle;Max_cycle;Signal;HPM_P1;HPM_P2
2022/04/26 03:36:15;;;;;;;;;;;;;;;7.84;81.47;100188.80;85682;1337;22543;-74
2022/04/26 03:38:20;;;;;;;;;;;;;;;7.85;81.55;100191.54;85773;1336;22478;-84
2022/04/26 03:40:24;;;;;;;;;;;;;;;7.86;81.50;100189.95;85769;1336;23188;-85
2022/04/26 03:42:29;;;;;;;;;;;;;;;7.86;81.52;100193.74;85760;1336;23259;-85
2022/04/26 03:44:34;;;;;;;;;;;;;;;7.86;81.51;100197.91;85678;1336;22507;-73
2022/04/26 03:46:38;;;;;;;;;;;;;;;7.87;81.54;100199.27;85696;1337;22483;-73
2022/04/26 03:48:43;;;;;;;;;;;;;;;7.91;81.57;100200.91;85795;1334;22505;-84
2022/04/26 03:50:50;;;;;;;;;;;;;;;7.90;81.45;100199.73;85744;1336;23094;-84
2022/04/26 03:52:55;;;;;;;;;;;;;;;7.88;81.43;100201.86;85766;1336;23076;-84
2022/04/26 03:55:02;;;;;;;;;;;;;;;7.85;81.22;100204.90;85767;1336;23119;-85
2022/04/26 03:57:10;;;;;;;;;;;;;;;7.85;81.53;100205.95;85689;1336;22493;-84
2022/04/26 03:59:15;;;;;;;;;;;;;;;7.85;81.48;100205.95;85780;1336;22472;-73
2022/04/26 04:01:22;;;;;;;;;;;;;;;7.84;81.37;100207.71;85770;1335;22567;-73
2022/04/26 04:03:30;;;;;;;;;;;;;;;7.84;81.55;100209.11;85554;1340;22514;-73
2022/04/26 04:05:38;;;;;;;;;;;;;;;7.84;81.55;100210.16;85754;1336;23074;-73
2022/04/26 04:07:42;;;;;;;;;;;;;;;7.84;81.57;100211.02;85754;1336;22483;-73
2022/04/26 04:09:47;;;;;;;;;;;;;;;7.84;81.64;100215.89;85681;1336;23201;-84
2022/04/26 04:11:54;;;;;;;;;;;;;;;7.82;81.65;100218.00;85769;1335;22551;-84
2022/04/26 04:14:02;;;;;;;;;;;;;;;7.82;81.67;100218.04;85667;1337;23475;-73
2022/04/26 04:16:10;;;;;;;;;;;;;;;7.83;81.79;100220.08;85665;1339;22480;-72
2022/04/26 04:20:40;;;;;;;;;;;;;;;7.83;81.96;100225.64;85678;1336;22484;-72
2022/04/26 04:22:45;;;;;;;;;;;;;;;7.82;81.99;100228.27;85682;1336;23265;-74
2022/04/26 04:24:49;;;;;;;;;;;;;;;7.82;81.99;100232.23;85672;1339;22996;-72
2022/04/26 04:26:55;;;;;;;;;;;;;;;7.81;82.02;100227.76;85685;1333;23289;-72
2022/04/26 04:29:03;;;;;;;;;;;;;;;7.82;82.05;100235.90;85772;1336;23179;-72
2022/04/26 04:31:08;;;;;;;;;;;;;;;7.81;82.13;100236.62;85683;1336;23131;-73
2022/04/26 04:33:12;;;;;;;;;;;;;;;7.81;82.17;100242.20;85787;1337;23288;-73
2022/04/26 04:35:17;;;;;;;;;;;;;;;7.82;82.24;100243.02;83550;1336;1003000;-73
2022/04/26 04:37:25;;;;;;;;;;;;;;;7.83;82.22;100247.17;85779;1336;22514;-73
2022/04/26 04:39:30;;;;;;;;;;;;;;;7.82;82.08;100248.41;85701;1339;22458;-82
2022/04/26 04:41:36;;;;;;;;;;;;;;;7.79;82.01;100249.20;85699;1336;22565;-82
2022/04/26 04:43:44;;;;;;;;;;;;;;;7.74;81.91;100254.54;85777;1336;23340;-83
2022/04/26 04:45:52;;;;;;;;;;;;;;;7.72;82.21;100255.80;85700;1336;22412;-74
2022/04/26 04:47:58;;;;;;;;;;;;;;;7.69;82.16;100258.33;85598;1339;23041;-73
2022/04/26 04:50:03;;;;;;;;;;;;;;;7.66;82.20;100263.46;85713;1336;22429;-73
2022/04/26 04:52:08;;;;;;;;;;;;;;;7.62;82.17;100261.30;85779;1338;23158;-73
2022/04/26 04:54:16;;;;;;;;;;;;;;;7.60;82.29;100265.02;85770;1335;23164;-73
2022/04/26 04:56:23;;;;;;;;;;;;;;;7.57;82.37;100266.96;85789;1335;22475;-75
2022/04/26 04:58:27;;;;;;;;;;;;;;;7.58;82.45;100268.01;85779;1336;22584;-84
2022/04/26 05:00:32;;;;;;;;;;;;;;;7.59;82.48;100271.98;85698;1335;23053;-84
2022/04/26 05:02:37;;;;;;;;;;;;;;;7.60;82.41;100272.46;85747;1338;22742;-86
2022/04/26 05:04:47;;;;;;;;;;;;;;;7.62;82.50;100271.35;83570;1338;3101831;-82
2022/04/26 05:06:52;;;;;;;;;;;;;;;7.64;82.67;100276.70;85768;1335;22926;-83
2022/04/26 05:08:57;;;;;;;;;;;;;;;7.65;82.64;100275.30;85760;1336;22476;-74
2022/04/26 05:11:02;;;;;;;;;;;;;;;7.65;82.64;100273.89;85755;1336;23152;-74
2022/04/26 05:13:08;;;;;;;;;;;;;;;7.66;82.60;100278.55;85559;1336;22596;-74
2022/04/26 05:15:16;;;;;;;;;;;;;;;7.68;82.55;100283.69;85579;1339;22497;-78
2022/04/26 05:17:23;;;;;;;;;;;;;;;7.70;82.48;100281.91;85689;1336;22471;-73
2022/04/26 05:19:29;;;;;;;;;;;;;;;7.72;82.52;100282.89;85762;1336;22493;-74
2022/04/26 05:21:34;;;;;;;;;;;;;;;7.74;82.60;100283.54;85766;1336;22497;-78
2022/04/26 05:26:02;;;;;;;;;;;;;;;7.78;82.56;100284.47;85685;1336;22440;-74
2022/04/26 05:28:07;;;;;;;;;;;;;;;7.79;82.60;100287.58;85729;1336;22523;-74
2022/04/26 05:30:15;;;;;;;;;;;;;;;7.82;82.71;100290.44;85771;1338;23121;-74
2022/04/26 05:32:24;;;;;;;;;;;;;;;7.85;82.74;100289.48;85786;1338;23006;-73
2022/04/26 05:34:29;;;;;;;;;;;;;;;7.87;82.81;100290.12;85767;1338;23169;-82
2022/04/26 05:36:34;;;;;;;;;;;;;;;7.87;82.71;100295.48;85783;1331;22925;-82
2022/04/26 05:38:38;;;;;;;;;;;;;;;7.89;82.68;100298.24;85789;1335;22485;-82
2022/04/26 05:40:42;;;;;;;;;;;;;;;7.91;82.84;100298.86;85761;1336;22471;-82
2022/04/26 05:42:50;;;;;;;;;;;;;;;7.93;82.85;100298.98;85773;1338;23157;-81
2022/04/26 05:44:55;;;;;;;;;;;;;;;7.95;82.88;100299.63;85793;1337;22430;-73
2022/04/26 05:47:01;;;;;;;;;;;;;;;7.97;82.96;100300.95;85758;1336;22465;-74
2022/04/26 05:49:06;;;;;;;;;;;;;;;7.99;82.89;100304.89;85678;1335;23127;-74
2022/04/26 05:51:11;;;;;;;;;;;;;;;8.01;82.90;100306.05;85557;1341;23149;-74
2022/04/26 05:53:19;;;;;;;;;;;;;;;8.01;82.69;100309.52;85692;1332;22955;-83
2022/04/26 05:55:24;;;;;;;;;;;;;;;7.99;82.57;100310.62;85778;1335;23135;-83
2022/04/26 05:57:29;;;;;;;;;;;;;;;7.99;82.53;100313.56;85765;1338;23053;-83
2022/04/26 05:59:34;;;;;;;;;;;;;;;8.00;82.67;100314.77;85765;1338;22465;-74
2022/04/26 06:01:40;;;;;;;;;;;;;;;8.03;82.67;100317.81;85773;1336;23227;-74
2022/04/26 06:03:45;;;;;;;;;;;;;;;8.06;82.88;100323.28;85771;1336;23107;-83
2022/04/26 06:05:50;;;;;;;;;;;;;;;8.11;83.02;100321.60;85780;1337;22455;-83
2022/04/26 06:07:59;;;;;;;;;;;;;;;8.17;83.24;100323.48;85764;1336;22425;-74
2022/04/26 06:10:04;;;;;;;;;;;;;;;8.23;83.12;100326.23;85763;1338;23103;-74
2022/04/26 06:12:12;;;;;;;;;;;;;;;8.30;82.96;100328.67;85561;1336;23036;-74
2022/04/26 06:14:23;;;;;;;;;;;;;;;8.34;82.93;100332.73;85756;1337;22484;-82
2022/04/26 06:16:28;;;;;;;;;;;;;;;8.37;82.57;100330.41;85779;1335;23146;-82
2022/04/26 06:18:33;;;;;;;;;;;;;;;8.42;82.75;100330.60;85770;1338;23009;-82
2022/04/26 06:20:37;;;;;;;;;;;;;;;8.50;82.82;100329.86;85768;1336;22506;-82
2022/04/26 06:22:42;;;;;;;;;;;;;;;8.58;82.79;100330.64;85785;1337;23084;-82
2022/04/26 06:24:49;;;;;;;;;;;;;;;8.64;82.72;100330.80;85761;1336;23229;-73
2022/04/26 06:26:54;;;;;;;;;;;;;;;8.73;82.61;100335.40;85772;1335;22601;-73
2022/04/26 06:29:01;;;;;;;;;;;;;;;8.79;82.47;100337.48;85762;1335;22462;-73
2022/04/26 06:31:10;;;;;;;;;;;;;;;8.85;82.18;100337.14;85760;1338;22476;-74
2022/04/26 06:33:17;;;;;;;;;;;;;;;8.92;82.30;100337.73;85769;1336;22532;-82
2022/04/26 06:35:22;;;;;;;;;;;;;;;9.00;82.28;100346.03;85784;1334;22565;-83
2022/04/26 06:37:27;;;;;;;;;;;;;;;9.08;81.87;100344.73;85784;1337;22467;-84
2022/04/26 06:39:32;;;;;;;;;;;;;;;9.14;81.76;100345.39;85782;1336;22558;-83
2022/04/26 06:41:40;;;;;;;;;;;;;;;9.16;81.45;100345.52;85776;1337;22493;-83
2022/04/26 06:43:45;;;;;;;;;;;;;;;9.19;81.33;100343.34;85795;1338;23184;-74
2022/04/26 06:45:50;;;;;;;;;;;;;;;9.20;81.08;100345.73;85772;1335;22447;-74
2022/04/26 06:47:54;;;;;;;;;;;;;;;9.20;80.73;100345.39;85757;1335;22497;-74
2022/04/26 06:49:59;;;;;;;;;;;;;;;9.16;80.38;100345.69;85674;1339;22598;-74
2022/04/26 06:52:08;;;;;;;;;;;;;;;9.14;80.52;100349.74;85606;1335;23193;-73
2022/04/26 06:54:16;;;;;;;;;;;;;;;9.14;80.68;100350.82;85685;1336;23156;-74
2022/04/26 06:56:22;;;;;;;;;;;;;;;9.15;80.61;100351.30;85773;1336;22531;-74
2022/04/26 06:58:26;;;;;;;;;;;;;;;9.13;80.64;100354.83;85655;1339;22503;-83
2022/04/26 07:00:34;;;;;;;;;;;;;;;9.10;80.43;100357.21;85778;1338;23123;-82
2022/04/26 07:02:42;;;;;;;;;;;;;;;9.08;80.25;100361.12;85777;1335;23196;-83
2022/04/26 07:04:46;;;;;;;;;;;;;;;9.05;80.36;100358.91;85689;1337;23083;-73
2022/04/26 07:06:55;;;;;;;;;;;;;;;9.06;80.41;100363.59;85687;1339;22453;-74
2022/04/26 07:09:04;;;;;;;;;;;;;;;9.08;80.54;100366.13;85690;1339;22458;-82
2022/04/26 07:11:11;;;;;;;;;;;;;;;9.11;80.74;100363.27;85686;1339;22599;-82
2022/04/26 07:13:18;;;;;;;;;;;;;;;9.13;80.62;100365.47;85785;1338;23240;-74
2022/04/26 07:15:25;;;;;;;;;;;;;;;9.17;80.83;100368.30;85754;1337;22511;-83
2022/04/26 07:17:33;;;;;;;;;;;;;;;9.23;81.06;100366.52;85767;1336;22510;-82
2022/04/26 07:19:41;;;;;;;;;;;;;;;9.32;81.13;100365.37;85709;1335;22512;-82
2022/04/26 07:21:49;;;;;;;;;;;;;;;9.37;80.58;100367.30;85773;1336;23207;-82
2022/04/26 07:23:54;;;;;;;;;;;;;;;9.40;80.76;100370.69;85707;1335;22535;-82
2022/04/26 07:26:01;;;;;;;;;;;;;;;9.46;80.81;100372.39;85783;1336;23160;-83
2022/04/26 07:28:09;;;;;;;;;;;;;;;9.47;80.51;100374.98;85774;1335;23101;-74
2022/04/26 07:30:18;;;;;;;;;;;;;;;9.47;80.33;100380.20;85705;1339;22632;-74
2022/04/26 07:34:48;;;;;;;;;;;;;;;9.55;80.28;100386.17;85674;1339;22473;-74
2022/04/26 07:36:57;;;;;;;;;;;;;;;9.61;79.96;100386.17;85668;1339;23192;-74
2022/04/26 07:39:06;;;;;;;;;;;;;;;9.63;79.86;100388.38;85574;1336;23081;-82
2022/04/26 07:41:14;;;;;;;;;;;;;;;9.66;79.88;100393.66;85695;1339;22991;-81
2022/04/26 07:43:19;;;;;;;;;;;;;;;9.71;79.98;100395.02;85603;1336;23145;-74
2022/04/26 07:45:24;;;;;;;;;;;;;;;9.76;79.63;100398.52;85695;1335;22646;-74
2022/04/26 07:47:29;;;;;;;;;;;;;;;9.78;79.36;100399.31;85669;1339;23114;-74
2022/04/26 07:49:34;;;;;;;;;;;;;;;9.82;79.11;100404.23;85695;1335;22519;-75
2022/04/26 07:51:42;;;;;;;;;;;;;;;9.79;78.82;100405.40;85686;1339;23046;-74
2022/04/26 07:53:50;;;;;;;;;;;;;;;9.76;78.92;100408.14;85678;1336;22499;-81
2022/04/26 07:55:54;;;;;;;;;;;;;;;9.76;78.98;100412.31;85702;1336;22431;-81
2022/04/26 07:57:59;;;;;;;;;;;;;;;9.78;79.04;100409.77;85751;1336;22510;-83
2022/04/26 08:00:05;;;;;;;;;;;;;;;9.84;79.06;100415.35;85788;1335;22593;-84
2022/04/26 08:02:11;;;;;;;;;;;;;;;9.91;79.44;100415.98;85787;1338;22536;-88
2022/04/26 08:04:16;;;;;;;;;;;;;;;9.97;79.05;100419.05;85691;1339;22493;-85
2022/04/26 08:06:20;;;;;;;;;;;;;;;10.03;78.71;100423.91;85777;1338;22592;-81
2022/04/26 08:08:28;;;;;;;;;;;;;;;10.03;78.39;100424.62;85782;1337;23173;-81
2022/04/26 08:10:34;;;;;;;;;;;;;;;9.96;78.15;100425.72;85786;1336;23139;-79
2022/04/26 08:12:41;;;;;;;;;;;;;;;9.89;77.86;100427.02;85776;1338;23167;-80
2022/04/26 08:14:46;;;;;;;;;;;;;;;9.82;77.90;100428.81;85779;1338;23046;-73
2022/04/26 08:16:51;;;;;;;;;;;;;;;9.75;77.83;100432.54;85777;1334;22493;-73
2022/04/26 08:18:56;;;;;;;;;;;;;;;9.71;78.06;100439.30;85782;1338;22483;-73
2022/04/26 08:21:01;;;;;;;;;;;;;;;9.67;77.86;100437.70;85757;1338;23089;-73
2022/04/26 08:23:07;;;;;;;;;;;;;;;9.64;78.15;100443.88;85763;1338;22493;-73
2022/04/26 08:27:37;;;;;;;;;;;;;;;9.66;78.55;100444.35;85783;1338;23162;-73
2022/04/26 08:29:42;;;;;;;;;;;;;;;9.70;78.45;100445.42;85762;1336;23080;-83
2022/04/26 08:31:46;;;;;;;;;;;;;;;9.71;78.55;100447.84;85777;1338;22523;-82
2022/04/26 08:33:54;;;;;;;;;;;;;;;9.68;78.12;100448.80;85778;1337;23278;-82
2022/04/26 08:35:59;;;;;;;;;;;;;;;9.69;78.14;100450.16;85665;1339;23055;-85
2022/04/26 08:38:06;;;;;;;;;;;;;;;9.72;78.19;100453.02;85674;1336;22442;-85
2022/04/26 08:40:12;;;;;;;;;;;;;;;9.82;78.70;100455.66;85723;1337;22473;-85
2022/04/26 08:42:16;;;;;;;;;;;;;;;9.93;78.61;100454.06;85759;1338;22519;-86
2022/04/26 08:44:21;;;;;;;;;;;;;;;10.00;77.98;100456.77;85781;1336;23135;-73
2022/04/26 08:50:59;;;;;;;;;;;;;;;10.06;77.71;100453.98;85784;1337;22458;-73
2022/04/26 08:51:15;;;;;;;;;;;;;;;10.20;77.02;100463.77;85768;1338;23034;-75
2022/04/26 08:53:20;;;;;;;;;;;;;;;10.21;76.84;100465.11;85770;1338;23172;-74
2022/04/26 08:55:25;;;;;;;;;;;;;;;10.25;76.96;100463.98;85481;1338;23188;-73
2022/04/26 08:57:30;;;;;;;;;;;;;;;10.29;76.96;100468.36;85695;1339;22493;-74
2022/04/26 08:59:34;;;;;;;;;;;;;;;10.32;76.63;100471.73;85789;1338;23143;-74
2022/04/26 09:01:39;;;;;;;;;;;;;;;10.35;76.41;100472.53;85560;1340;22467;-73
2022/04/26 09:03:54;;;;;;;;;;;;;;;10.34;76.20;100474.11;85707;1335;23168;-74
2022/04/26 09:06:07;;;;;;;;;;;;;;;10.37;76.12;100478.38;85779;1336;22438;-81
2022/04/26 09:08:24;;;;;;;;;;;;;;;10.38;76.18;100476.95;85787;1336;23219;-81
2022/04/26 09:10:29;;;;;;;;;;;;;;;10.39;76.18;100477.60;85779;1338;22493;-82
2022/04/26 09:12:59;;;;;;;;;;;;;;;10.36;75.94;100481.04;85691;1339;22521;-83
2022/04/26 09:15:16;;;;;;;;;;;;;;;10.34;76.26;100486.52;85678;1339;23016;-82
2022/04/26 09:17:21;;;;;;;;;;;;;;;10.43;76.38;100485.33;85678;1336;23110;-74
2022/04/26 09:19:29;;;;;;;;;;;;;;;10.50;76.59;100487.14;85771;1337;22484;-80
2022/04/26 09:21:34;;;;;;;;;;;;;;;10.63;76.87;100490.15;85769;1336;22554;-80
2022/04/26 09:23:39;;;;;;;;;;;;;;;10.79;76.46;100490.44;85692;1339;23117;-81
2022/04/26 09:25:44;;;;;;;;;;;;;;;10.91;76.06;100491.21;85773;1336;23103;-80
2022/04/26 09:27:57;;;;;;;;;;;;;;;10.98;74.99;100490.26;85767;1337;22442;-76
2022/04/26 09:30:07;;;;;;;;;;;;;;;11.04;75.17;100489.00;85682;1336;23193;-73
2022/04/26 09:32:12;;;;;;;;;;;;;;;11.14;75.41;100486.70;85667;1339;23151;-74
2022/04/26 09:34:23;;;;;;;;;;;;;;;11.20;75.17;100490.98;85688;1336;22467;-73
2022/04/26 09:36:29;;;;;;;;;;;;;;;11.26;74.60;100487.81;85666;1336;22474;-73
2022/04/26 09:38:34;;;;;;;;;;;;;;;11.29;74.54;100491.15;85644;1336;23174;-74
2022/04/26 09:40:39;;;;;;;;;;;;;;;11.40;74.71;100493.19;85671;1339;22582;-73
2022/04/26 09:42:45;;;;;;;;;;;;;;;11.52;74.41;100491.14;85696;1336;23049;-73
2022/04/26 09:44:59;;;;;;;;;;;;;;;11.60;73.88;100490.13;85686;1339;22997;-83
2022/04/26 09:47:05;;;;;;;;;;;;;;;11.75;74.01;100489.00;85763;1337;22477;-83
2022/04/26 09:49:10;;;;;;;;;;;;;;;11.95;74.04;100490.10;85781;1337;22541;-82
2022/04/26 09:51:18;;;;;;;;;;;;;;;12.15;74.17;100488.91;85770;1336;22504;-82
2022/04/26 09:53:22;;;;;;;;;;;;;;;12.32;73.99;100484.87;85760;1337;23135;-74
2022/04/26 09:55:30;;;;;;;;;;;;;;;12.43;73.42;100485.61;85754;1338;22959;-74
2022/04/26 09:57:35;;;;;;;;;;;;;;;12.48;73.04;100483.45;85764;1337;22485;-73
2022/04/26 09:59:44;;;;;;;;;;;;;;;12.54;72.85;100486.52;85774;1338;22446;-73
2022/04/26 10:01:48;;;;;;;;;;;;;;;12.56;72.34;100485.54;85652;1336;23207;-74
2022/04/26 10:03:53;;;;;;;;;;;;;;;12.54;71.79;100488.10;85763;1335;22563;-81
2022/04/26 10:06:01;;;;;;;;;;;;;;;12.49;71.38;100489.73;85762;1336;23115;-81
2022/04/26 10:08:09;;;;;;;;;;;;;;;12.47;71.44;100494.00;85756;1338;22461;-74
2022/04/26 10:10:14;;;;;;;;;;;;;;;12.47;70.79;100492.59;85681;1336;23100;-74
2022/04/26 10:12:19;;;;;;;;;;;;;;;12.39;69.38;100498.91;85777;1339;22433;-73
2022/04/26 10:14:27;;;;;;;;;;;;;;;12.31;69.93;100497.67;85777;1338;22505;-83
2022/04/26 10:16:32;;;;;;;;;;;;;;;12.35;70.81;100499.76;85671;1339;23342;-83
2022/04/26 10:18:39;;;;;;;;;;;;;;;12.49;71.03;100498.48;85692;1339;23064;-75
2022/04/26 10:20:45;;;;;;;;;;;;;;;12.57;70.42;100497.08;85773;1336;22485;-74
2022/04/26 10:23:00;;;;;;;;;;;;;;;12.63;70.62;100499.41;85537;1341;22525;-78
2022/04/26 10:25:13;;;;;;;;;;;;;;;12.77;70.38;100498.98;85681;1339;22443;-84
2022/04/26 10:27:22;;;;;;;;;;;;;;;12.83;70.02;100500.45;85676;1337;22580;-85
2022/04/26 10:29:30;;;;;;;;;;;;;;;12.85;69.79;100501.73;85780;1337;22499;-81
2022/04/26 10:31:39;;;;;;;;;;;;;;;12.83;69.28;100500.46;85671;1337;22610;-82
2022/04/26 10:33:47;;;;;;;;;;;;;;;12.80;69.11;100504.75;85690;1339;22509;-84
2022/04/26 10:35:52;;;;;;;;;;;;;;;12.79;69.11;100508.17;85701;1338;22427;-83
2022/04/26 10:38:16;;;;;;;;;;;;;;;12.83;69.27;100511.83;85781;1336;23062;-84
2022/04/26 10:40:21;;;;;;;;;;;;;;;12.90;69.13;100512.56;85768;1338;22649;-83
2022/04/26 10:42:31;;;;;;;;;;;;;;;13.00;69.24;100510.73;85762;1335;23164;-84
2022/04/26 10:44:42;;;;;;;;;;;;;;;13.10;69.26;100511.13;85785;1337;22526;-75
2022/04/26 10:46:50;;;;;;;;;;;;;;;13.20;69.17;100508.90;85769;1336;22499;-74
2022/04/26 10:48:57;;;;;;;;;;;;;;;13.33;69.05;100511.33;85790;1337;23184;-76
2022/04/26 10:51:26;;;;;;;;;;;;;;;13.37;68.18;100513.20;85748;1338;23256;-75
2022/04/26 10:53:45;;;;;;;;;;;;;;;13.36;67.78;100514.48;85679;1336;23237;-84
2022/04/26 10:55:53;;;;;;;;;;;;;;;13.36;67.45;100515.73;85741;1338;23113;-85
2022/04/26 10:57:59;;;;;;;;;;;;;;;13.35;67.12;100514.70;85592;1339;22477;-81
2022/04/26 11:00:08;;;;;;;;;;;;;;;13.35;67.36;100516.80;85762;1338;23171;-83
2022/04/26 11:02:16;;;;;;;;;;;;;;;13.39;67.30;100517.85;85686;1336;22478;-84
2022/04/26 11:04:21;;;;;;;;;;;;;;;13.43;66.86;100520.11;85758;1338;23151;-74
2022/04/26 11:06:37;;;;;;;;;;;;;;;13.43;66.27;100517.69;85688;1336;23211;-74
2022/04/26 11:08:44;;;;;;;;;;;;;;;13.39;65.96;100519.08;85768;1338;22534;-82
2022/04/26 11:11:01;;;;;;;;;;;;;;;13.49;66.85;100515.66;85780;1336;23095;-82
2022/04/26 11:13:09;;;;;;;;;;;;;;;13.68;66.80;100516.67;85699;1335;22528;-74
2022/04/26 11:15:19;;;;;;;;;;;;;;;13.78;65.55;100512.63;85707;1336;23090;-75
2022/04/26 11:17:24;;;;;;;;;;;;;;;13.87;65.54;100513.61;85778;1338;22471;-73
2022/04/26 11:19:32;;;;;;;;;;;;;;;13.99;64.84;100516.17;85772;1337;23198;-81
2022/04/26 11:21:40;;;;;;;;;;;;;;;14.05;64.36;100517.13;85680;1334;22507;-82
2022/04/26 11:28:31;;;;;;;;;;;;;;;14.42;63.43;100513.78;85687;1336;23110;-73
2022/04/26 11:30:40;;;;;;;;;;;;;;;14.49;63.31;100520.67;85684;1336;23166;-75
2022/04/26 11:32:47;;;;;;;;;;;;;;;14.51;62.63;100517.41;85765;1338;23247;-74
2022/04/26 11:34:52;;;;;;;;;;;;;;;14.55;62.78;100518.61;85701;1339;23235;-81
2022/04/26 11:36:57;;;;;;;;;;;;;;;14.56;61.97;100517.85;85687;1336;23173;-80
2022/04/26 11:39:05;;;;;;;;;;;;;;;14.54;62.03;100514.83;85676;1335;23062;-80
2022/04/26 11:41:10;;;;;;;;;;;;;;;14.58;62.18;100516.02;85687;1339;22533;-81
2022/04/26 11:43:19;;;;;;;;;;;;;;;14.64;61.76;100515.52;85687;1336;22654;-74
2022/04/26 11:45:28;;;;;;;;;;;;;;;14.71;62.08;100517.75;85698;1336;23368;-74
2022/04/26 11:47:40;;;;;;;;;;;;;;;14.84;61.46;100514.98;85680;1337;23058;-74
2022/04/26 11:53:01;;;;;;;;;;;;;;;15.03;61.05;100520.45;85567;1338;23018;-75
2022/04/26 11:55:07;;;;;;;;;;;;;;;15.07;59.76;100515.86;85697;1339;23244;-75
2022/04/26 11:57:13;;;;;;;;;;;;;;;15.03;59.83;100518.73;85697;1336;22423;-75
2022/04/26 11:59:18;;;;;;;;;;;;;;;15.00;59.60;100519.23;85690;1339;22506;-82
2022/04/26 12:01:23;;;;;;;;;;;;;;;14.92;58.98;100515.08;85699;1339;23222;-84
2022/04/26 12:03:29;;;;;;;;;;;;;;;14.81;59.24;100514.43;85784;1335;23057;-84
2022/04/26 12:05:37;;;;;;;;;;;;;;;14.79;59.36;100519.80;85711;1339;22590;-84
2022/04/26 12:07:42;;;;;;;;;;;;;;;14.77;58.59;100521.66;85777;1332;23118;-74
2022/04/26 12:09:56;;;;;;;;;;;;;;;14.80;59.14;100519.93;85810;1337;23070;-85
2022/04/26 12:12:05;;;;;;;;;;;;;;;14.81;58.47;100519.71;85755;1338;22448;-82
2022/04/26 12:14:14;;;;;;;;;;;;;;;14.85;58.40;100520.72;85678;1336;23081;-82
2022/04/26 12:16:20;;;;;;;;;;;;;;;14.88;58.24;100517.71;85704;1336;22492;-80
2022/04/26 12:18:25;;;;;;;;;;;;;;;14.95;58.85;100515.59;85681;1339;22436;-80
2022/04/26 12:20:30;;;;;;;;;;;;;;;15.07;58.78;100516.21;85698;1339;22437;-80
2022/04/26 12:22:38;;;;;;;;;;;;;;;15.22;58.56;100518.36;85774;1336;22439;-81
2022/04/26 12:24:47;;;;;;;;;;;;;;;15.38;58.64;100518.54;85777;1338;23130;-76
2022/04/26 12:26:59;;;;;;;;;;;;;;;15.51;57.81;100517.64;85681;1336;22492;-76
2022/04/26 12:29:14;;;;;;;;;;;;;;;15.51;56.60;100517.82;85773;1338;23186;-81
2022/04/26 12:31:25;;;;;;;;;;;;;;;15.41;56.41;100514.48;85681;1336;22648;-82
2022/04/26 12:33:32;;;;;;;;;;;;;;;15.42;55.92;100512.71;85698;1339;22515;-83
2022/04/26 12:35:36;;;;;;;;;;;;;;;15.40;56.30;100509.80;85709;1336;22502;-83
2022/04/26 12:37:41;;;;;;;;;;;;;;;15.43;56.63;100512.09;85773;1336;22455;-81
2022/04/26 12:39:48;;;;;;;;;;;;;;;15.44;55.88;100509.77;85766;1337;23261;-81
2022/04/26 12:41:55;;;;;;;;;;;;;;;15.42;55.71;100509.86;85786;1338;23293;-81
2022/04/26 12:44:03;;;;;;;;;;;;;;;15.45;55.88;100511.27;85748;1336;22625;-75
2022/04/26 12:46:08;;;;;;;;;;;;;;;15.42;56.13;100511.13;85658;1334;22635;-75
2022/04/26 12:50:39;;;;;;;;;;;;;;;15.52;55.74;100513.53;85765;1335;22486;-76
2022/04/26 12:52:45;;;;;;;;;;;;;;;15.45;54.54;100512.14;85746;1336;23181;-75
2022/04/26 12:54:56;;;;;;;;;;;;;;;15.38;55.05;100513.11;85767;1338;23152;-74
2022/04/26 12:57:07;;;;;;;;;;;;;;;15.37;55.43;100509.46;85692;1336;22446;-75
2022/04/26 12:59:16;;;;;;;;;;;;;;;15.40;55.43;100510.00;85688;1340;23172;-75
2022/04/26 13:01:21;;;;;;;;;;;;;;;15.40;55.33;100510.14;85690;1337;22569;-76
2022/04/26 13:03:25;;;;;;;;;;;;;;;15.44;55.68;100510.29;85597;1336;215070;-79
2022/04/26 13:05:36;;;;;;;;;;;;;;;15.43;55.38;100513.48;85782;1338;23155;-80
2022/04/26 13:07:45;;;;;;;;;;;;;;;15.40;54.64;100511.90;85690;1339;22490;-84
2022/04/26 13:09:50;;;;;;;;;;;;;;;15.35;54.66;100515.32;85702;1338;23078;-80
2022/04/26 13:11:55;;;;;;;;;;;;;;;15.31;54.31;100511.88;85742;1336;23128;-81
2022/04/26 13:14:00;;;;;;;;;;;;;;;15.19;53.25;100508.86;85541;1337;23067;-75
2022/04/26 13:16:05;;;;;;;;;;;;;;;15.05;53.53;100509.28;85776;1335;22445;-75
2022/04/26 13:18:10;;;;;;;;;;;;;;;14.94;53.57;100507.05;85765;1337;22443;-79
2022/04/26 13:20:15;;;;;;;;;;;;;;;14.83;53.60;100508.36;85695;1336;22448;-80
2022/04/26 13:22:21;;;;;;;;;;;;;;;14.81;54.20;100509.36;85703;1335;23276;-79
2022/04/26 13:24:28;;;;;;;;;;;;;;;14.80;54.40;100504.46;85683;1339;22514;-75
2022/04/26 13:26:35;;;;;;;;;;;;;;;14.86;54.63;100506.61;85761;1336;23061;-75
2022/04/26 13:28:43;;;;;;;;;;;;;;;14.93;54.74;100502.38;85703;1335;22697;-79
2022/04/26 13:30:48;;;;;;;;;;;;;;;15.02;54.74;100505.95;85535;1339;23121;-79
2022/04/26 13:32:54;;;;;;;;;;;;;;;15.05;54.61;100503.87;85706;1339;23063;-79
2022/04/26 13:34:59;;;;;;;;;;;;;;;15.10;54.52;100503.36;85751;1336;23171;-80
2022/04/26 13:37:07;;;;;;;;;;;;;;;15.17;54.14;100499.32;85754;1336;23136;-83
2022/04/26 13:39:15;;;;;;;;;;;;;;;15.22;54.21;100504.15;85558;1338;22561;-74
2022/04/26 13:41:20;;;;;;;;;;;;;;;15.26;53.98;100503.73;85760;1336;23100;-75
2022/04/26 13:43:25;;;;;;;;;;;;;;;15.27;53.60;100505.41;85708;1336;22514;-75
2022/04/26 13:45:31;;;;;;;;;;;;;;;15.29;53.86;100505.48;85685;1336;22617;-76
2022/04/26 13:47:41;;;;;;;;;;;;;;;15.35;54.04;100506.05;85675;1336;23018;-76
2022/04/26 13:49:48;;;;;;;;;;;;;;;15.33;53.29;100512.14;85689;1339;23254;-74
2022/04/26 13:51:55;;;;;;;;;;;;;;;15.27;53.18;100510.68;85751;1336;23170;-74
2022/04/26 13:54:04;;;;;;;;;;;;;;;15.19;52.85;100508.67;85698;1337;22454;-81
2022/04/26 13:56:15;;;;;;;;;;;;;;;15.15;53.32;100510.99;85687;1334;22539;-80
2022/04/26 13:58:23;;;;;;;;;;;;;;;15.17;53.50;100511.79;85699;1336;22444;-73
2022/04/26 14:00:30;;;;;;;;;;;;;;;15.14;53.25;100514.02;85776;1337;22527;-74
2022/04/26 14:02:35;;;;;;;;;;;;;;;15.07;53.13;100514.43;85768;1336;22518;-85
2022/04/26 14:04:40;;;;;;;;;;;;;;;14.99;53.21;100515.58;85773;1335;22501;-75
2022/04/26 14:06:45;;;;;;;;;;;;;;;14.94;52.51;100513.20;85768;1336;23075;-75
2022/04/26 14:08:52;;;;;;;;;;;;;;;14.83;53.06;100511.48;85773;1337;23083;-82
2022/04/26 14:11:00;;;;;;;;;;;;;;;14.82;53.31;100512.63;85770;1336;22472;-82
2022/04/26 14:13:05;;;;;;;;;;;;;;;14.79;53.20;100518.24;85698;1337;23271;-80
2022/04/26 14:22:30;;;;;;;;;;;;;;;14.44;54.07;100511.95;85690;1339;23156;-83
2022/04/26 14:24:35;;;;;;;;;;;;;;;14.32;54.00;100509.96;85682;1336;23293;-83
2022/04/26 14:26:42;;;;;;;;;;;;;;;14.18;54.52;100514.84;85692;1339;22435;-82
2022/04/26 14:28:47;;;;;;;;;;;;;;;14.10;54.89;100512.48;85702;1339;23105;-74
2022/04/26 14:30:52;;;;;;;;;;;;;;;14.02;55.26;100514.98;85705;1336;22520;-74
2022/04/26 14:33:00;;;;;;;;;;;;;;;13.92;55.27;100520.21;85715;1335;23058;-75
2022/04/26 14:35:07;;;;;;;;;;;;;;;13.83;55.55;100517.52;85681;1336;22474;-74
2022/04/26 14:37:15;;;;;;;;;;;;;;;13.73;55.40;100515.87;85708;1335;22461;-75
2022/04/26 14:39:19;;;;;;;;;;;;;;;13.60;56.00;100517.91;85769;1334;23172;-82
2022/04/26 14:41:25;;;;;;;;;;;;;;;13.48;55.75;100519.71;85714;1336;23098;-83
2022/04/26 14:43:29;;;;;;;;;;;;;;;13.37;56.72;100517.41;85725;1335;22541;-74
2022/04/26 14:45:42;;;;;;;;;;;;;;;13.26;57.09;100521.45;85705;1335;22492;-75
2022/04/26 14:47:50;;;;;;;;;;;;;;;13.15;56.91;100522.29;85715;1336;22566;-79
2022/04/26 14:49:56;;;;;;;;;;;;;;;13.09;57.31;100524.14;85704;1337;23062;-82
2022/04/26 14:52:01;;;;;;;;;;;;;;;13.02;57.67;100521.65;85699;1335;22472;-74
2022/04/26 14:54:06;;;;;;;;;;;;;;;12.94;58.16;100523.59;85706;1336;22500;-74
2022/04/26 14:56:11;;;;;;;;;;;;;;;12.86;58.48;100525.86;85707;1336;23211;-75
2022/04/26 14:58:18;;;;;;;;;;;;;;;12.78;58.73;100523.27;85710;1337;23250;-83
2022/04/26 15:00:22;;;;;;;;;;;;;;;12.70;59.27;100530.43;85704;1335;23152;-83